createdAt,value
2023-01-29T00:00:18.613Z,5.25
2023-01-29T00:02:47.476Z,5.53
2023-01-29T00:05:27.534Z,5.68
2023-01-29T00:07:58.810Z,5.18
2023-01-29T00:10:27.686Z,5.28
2023-01-29T00:12:56.534Z,5.47
2023-01-29T00:15:31.107Z,5.60
2023-01-29T00:18:00.680Z,5.75
2023-01-29T00:20:29.237Z,6.07
2023-01-29T00:22:59.291Z,5.75
2023-01-29T00:25:27.942Z,5.05
2023-01-29T00:27:56.659Z,6.85
2023-01-29T00:30:25.279Z,5.97
2023-01-29T00:32:54.229Z,5.60
2023-01-29T00:35:22.790Z,6.10
2023-01-29T00:37:51.609Z,6.53
2023-01-29T00:40:21.716Z,5.50
2023-01-29T00:43:07.797Z,6.43
2023-01-29T00:45:37.083Z,7.13
2023-01-29T00:48:09.724Z,6.85
2023-01-29T00:50:38.277Z,6.53
2023-01-29T00:53:07.766Z,5.88
2023-01-29T00:55:37.985Z,6.78
2023-01-29T00:58:06.625Z,6.60
2023-01-29T01:00:36.211Z,6.75
2023-01-29T01:03:06.726Z,6.47
2023-01-29T01:05:37.124Z,6.72
2023-01-29T01:08:27.929Z,6.93
2023-01-29T01:11:06.132Z,6.70
2023-01-29T01:13:35.916Z,6.25
2023-01-29T01:18:39.260Z,6.25
2023-01-29T01:21:08.734Z,6.55
2023-01-29T01:23:38.469Z,6.00
2023-01-29T01:26:12.032Z,6.20
2023-01-29T01:28:40.958Z,6.35
2023-01-29T01:31:11.087Z,6.87
2023-01-29T01:33:40.320Z,7.40
2023-01-29T01:36:10.242Z,7.32
2023-01-29T01:38:44.751Z,7.05
2023-01-29T01:41:16.779Z,6.55
2023-01-29T01:43:54.186Z,6.35
2023-01-29T01:46:23.642Z,6.68
2023-01-29T01:48:56.045Z,6.22
2023-01-29T01:51:27.611Z,7.88
2023-01-29T01:54:02.804Z,6.65
2023-01-29T01:56:40.798Z,7.07
2023-01-29T01:59:13.131Z,6.57
2023-01-29T02:01:44.521Z,8.75
2023-01-29T02:04:34.727Z,7.40
2023-01-29T02:07:23.355Z,8.23
2023-01-29T02:09:54.940Z,7.82
2023-01-29T02:12:25.275Z,7.88
2023-01-29T02:14:53.981Z,7.82
2023-01-29T02:17:24.143Z,7.68
2023-01-29T02:20:03.976Z,6.80
2023-01-29T02:22:55.358Z,7.22
2023-01-29T02:25:51.992Z,7.53
2023-01-29T02:28:37.524Z,7.25
2023-01-29T02:31:13.645Z,7.70
2023-01-29T02:33:55.104Z,7.30
2023-01-29T02:36:33.198Z,7.55
2023-01-29T02:39:12.548Z,7.22
2023-01-29T02:41:47.546Z,6.95
2023-01-29T02:44:23.499Z,7.75
2023-01-29T02:46:59.247Z,6.85
2023-01-29T02:49:34.696Z,7.50
2023-01-29T02:52:08.007Z,8.27
2023-01-29T02:54:43.694Z,7.97
2023-01-29T02:57:20.323Z,7.75
2023-01-29T02:59:56.578Z,8.00
2023-01-29T03:02:31.900Z,6.50
2023-01-29T03:05:04.697Z,7.20
2023-01-29T03:07:45.095Z,7.97
2023-01-29T03:10:35.083Z,7.90
2023-01-29T03:13:07.727Z,7.70
2023-01-29T03:15:47.559Z,7.68
2023-01-29T03:18:31.671Z,7.43
2023-01-29T03:21:29.135Z,8.55
2023-01-29T03:24:17.077Z,7.85
2023-01-29T03:27:03.169Z,6.80
2023-01-29T03:29:56.919Z,7.28
2023-01-29T03:32:33.318Z,7.43
2023-01-29T03:35:05.956Z,7.10
2023-01-29T03:37:40.009Z,7.28
2023-01-29T03:40:10.467Z,7.90
2023-01-29T03:42:52.107Z,8.07
2023-01-29T03:45:28.071Z,8.00
2023-01-29T03:48:07.063Z,9.18
2023-01-29T03:50:40.614Z,7.60
2023-01-29T03:53:18.482Z,7.88
2023-01-29T03:55:56.055Z,8.10
2023-01-29T03:58:31.778Z,8.13
2023-01-29T04:01:04.617Z,7.63
2023-01-29T04:03:38.590Z,7.70
2023-01-29T04:06:14.371Z,8.07
2023-01-29T04:08:58.646Z,7.45
2023-01-29T04:11:30.189Z,7.80
2023-01-29T04:13:59.576Z,9.18
2023-01-29T04:16:32.683Z,7.43
2023-01-29T04:19:18.421Z,7.63
2023-01-29T04:21:52.033Z,8.45
2023-01-29T04:24:21.234Z,8.57
2023-01-29T04:27:01.771Z,7.93
2023-01-29T04:29:41.878Z,9.48
2023-01-29T04:32:19.952Z,10.05
2023-01-29T04:34:59.413Z,10.32
2023-01-29T04:37:37.717Z,11.75
2023-01-29T04:40:17.244Z,11.95
2023-01-29T04:42:52.058Z,9.48
2023-01-29T04:45:29.674Z,10.00
2023-01-29T04:48:08.104Z,10.55
2023-01-29T04:50:41.824Z,8.73
2023-01-29T04:53:17.668Z,9.48
2023-01-29T04:55:51.235Z,8.55
2023-01-29T04:58:27.893Z,8.48
2023-01-29T05:00:56.716Z,8.00
2023-01-29T05:03:28.239Z,7.53
2023-01-29T05:05:59.724Z,7.78
2023-01-29T05:08:31.724Z,8.45
2023-01-29T05:11:01.350Z,8.13
2023-01-29T05:13:33.089Z,7.75
2023-01-29T05:16:06.368Z,7.18
2023-01-29T05:18:35.770Z,9.05
2023-01-29T05:21:08.679Z,8.77
2023-01-29T05:23:37.483Z,7.68
2023-01-29T05:26:07.052Z,7.23
2023-01-29T05:28:35.617Z,8.60
2023-01-29T05:31:04.248Z,8.43
2023-01-29T05:33:33.324Z,7.75
2023-01-29T05:36:02.079Z,7.97
2023-01-29T05:38:32.170Z,8.00
2023-01-29T05:41:00.784Z,9.52
2023-01-29T05:43:29.313Z,10.60
2023-01-29T05:46:00.117Z,9.55
2023-01-29T05:48:30.106Z,10.40
2023-01-29T05:53:32.329Z,8.40
2023-01-29T05:56:03.268Z,10.32
2023-01-29T05:58:32.573Z,9.52
2023-01-29T06:01:10.272Z,11.35
2023-01-29T06:03:38.894Z,13.32
2023-01-29T06:06:07.882Z,11.98
2023-01-29T06:08:38.155Z,11.23
2023-01-29T06:11:09.715Z,9.98
2023-01-29T06:13:39.688Z,8.98
2023-01-29T06:16:09.184Z,9.30
2023-01-29T06:18:39.073Z,9.80
2023-01-29T06:21:09.600Z,8.88
2023-01-29T06:23:39.835Z,9.65
2023-01-29T06:26:11.863Z,11.10
2023-01-29T06:28:41.153Z,10.48
2023-01-29T06:31:37.950Z,9.65
2023-01-29T06:33:58.707Z,9.20
2023-01-29T06:36:27.212Z,9.00
2023-01-29T06:38:57.236Z,8.57
2023-01-29T06:41:26.464Z,7.95
2023-01-29T06:43:54.924Z,8.75
2023-01-29T06:46:23.538Z,8.90
2023-01-29T06:48:52.233Z,10.70
2023-01-29T06:51:21.509Z,8.73
2023-01-29T06:53:50.041Z,9.07
2023-01-29T06:56:20.029Z,9.30
2023-01-29T06:58:49.650Z,9.10
2023-01-29T07:04:05.121Z,9.50
2023-01-29T07:06:33.976Z,9.18
2023-01-29T07:09:02.794Z,8.90
2023-01-29T07:11:32.954Z,7.22
2023-01-29T07:14:01.594Z,8.55
2023-01-29T07:16:30.339Z,8.80
2023-01-29T07:19:00.088Z,7.50
2023-01-29T07:23:57.179Z,8.43
2023-01-29T07:26:25.728Z,9.52
2023-01-29T07:28:55.772Z,10.13
2023-01-29T07:31:24.559Z,9.25
2023-01-29T07:33:53.178Z,9.65
2023-01-29T07:36:21.733Z,9.02
2023-01-29T07:38:51.801Z,8.43
2023-01-29T07:41:21.405Z,8.13
2023-01-29T07:43:50.188Z,9.63
2023-01-29T07:46:20.123Z,8.70
2023-01-29T07:48:48.660Z,9.10
2023-01-29T07:51:18.632Z,9.15
2023-01-29T07:53:47.377Z,8.10
2023-01-29T07:56:15.969Z,8.30
2023-01-29T07:58:44.684Z,7.65
2023-01-29T08:01:13.461Z,8.15
2023-01-29T08:03:43.482Z,8.63
2023-01-29T08:06:12.021Z,8.73
2023-01-29T08:08:40.698Z,8.57
2023-01-29T08:11:09.306Z,8.88
2023-01-29T08:13:37.853Z,8.68
2023-01-29T08:16:07.471Z,10.15
2023-01-29T08:18:37.951Z,9.45
2023-01-29T08:21:07.997Z,9.88
2023-01-29T08:23:36.574Z,8.77
2023-01-29T08:26:06.043Z,9.93
2023-01-29T08:28:35.398Z,10.43
2023-01-29T08:31:03.932Z,12.32
2023-01-29T08:33:39.127Z,8.60
2023-01-29T08:36:11.129Z,9.95
2023-01-29T08:38:39.870Z,11.05
2023-01-29T08:41:08.934Z,9.65
2023-01-29T08:43:38.697Z,9.00
2023-01-29T08:48:36.468Z,9.73
2023-01-29T08:51:05.906Z,9.00
2023-01-29T08:53:35.791Z,9.25
2023-01-29T08:56:04.619Z,8.25
2023-01-29T08:58:36.861Z,8.97
2023-01-29T09:01:09.532Z,8.40
2023-01-29T09:03:41.146Z,7.70
2023-01-29T09:06:11.563Z,8.30
2023-01-29T09:08:42.332Z,7.38
2023-01-29T09:11:30.980Z,7.07
2023-01-29T09:13:59.705Z,6.93
2023-01-29T09:16:28.306Z,6.60
2023-01-29T09:18:57.054Z,7.13
2023-01-29T09:21:25.904Z,6.50
2023-01-29T09:23:55.897Z,7.13
2023-01-29T09:26:24.711Z,6.80
2023-01-29T09:28:53.374Z,5.97
2023-01-29T09:31:22.259Z,5.60
2023-01-29T09:33:51.109Z,5.78
2023-01-29T09:36:19.785Z,5.67
2023-01-29T09:38:48.388Z,6.25
2023-01-29T09:41:35.171Z,6.20
2023-01-29T09:44:06.072Z,6.18
2023-01-29T09:46:41.511Z,6.47
2023-01-29T09:49:16.143Z,6.57
2023-01-29T09:51:50.519Z,6.55
2023-01-29T09:54:24.582Z,6.95
2023-01-29T09:56:57.165Z,7.25
2023-01-29T09:59:28.829Z,7.45
2023-01-29T10:02:07.276Z,7.15
2023-01-29T10:05:23.194Z,7.10
2023-01-29T10:08:29.641Z,7.07
2023-01-29T10:11:09.358Z,7.28
2023-01-29T10:13:49.871Z,7.82
2023-01-29T10:16:29.702Z,6.78
2023-01-29T10:21:52.467Z,7.32
2023-01-29T10:24:31.538Z,7.05
2023-01-29T10:27:02.392Z,6.57
2023-01-29T10:29:34.206Z,7.25
2023-01-29T10:32:06.185Z,6.25
2023-01-29T10:34:40.259Z,6.57
2023-01-29T10:37:18.707Z,6.97
2023-01-29T10:39:47.773Z,6.72
2023-01-29T10:42:25.829Z,6.85
2023-01-29T10:45:10.014Z,5.90
2023-01-29T10:48:13.094Z,6.40
2023-01-29T10:50:49.063Z,6.80
2023-01-29T10:53:33.487Z,7.03
2023-01-29T10:56:22.962Z,6.90
2023-01-29T11:01:23.185Z,6.03
2023-01-29T11:03:59.997Z,6.97
2023-01-29T11:06:32.164Z,6.40
2023-01-29T11:09:10.215Z,6.15
2023-01-29T11:11:45.632Z,6.57
2023-01-29T11:14:17.926Z,6.68
2023-01-29T11:16:49.661Z,6.18
2023-01-29T11:19:18.738Z,5.75
2023-01-29T11:21:59.140Z,6.18
2023-01-29T11:24:28.425Z,5.78
2023-01-29T11:27:00.005Z,5.93
2023-01-29T11:29:38.321Z,6.28
2023-01-29T11:32:12.851Z,5.20
2023-01-29T11:35:02.874Z,5.53
2023-01-29T11:37:38.369Z,5.38
2023-01-29T11:40:35.180Z,5.13
2023-01-29T11:43:23.642Z,5.38
2023-01-29T11:45:55.004Z,5.43
2023-01-29T11:48:40.475Z,4.80
2023-01-29T11:51:11.709Z,5.25
2023-01-29T11:53:43.857Z,5.75
2023-01-29T11:56:24.075Z,5.30
2023-01-29T11:58:55.915Z,5.15
2023-01-29T12:01:33.900Z,5.13
2023-01-29T12:04:05.695Z,4.95
2023-01-29T12:06:37.601Z,4.75
2023-01-29T12:09:14.478Z,4.28
2023-01-29T12:11:44.552Z,4.28
2023-01-29T12:14:28.193Z,4.28
2023-01-29T12:17:00.974Z,4.07
2023-01-29T12:19:38.335Z,2.80
2023-01-29T12:22:11.843Z,4.03
2023-01-29T12:24:45.664Z,4.93
2023-01-29T12:27:18.656Z,3.58
2023-01-29T12:30:02.503Z,3.10
2023-01-29T12:32:39.832Z,2.60
2023-01-29T12:35:19.404Z,3.60
2023-01-29T12:37:58.456Z,2.63
2023-01-29T12:40:30.804Z,2.95
2023-01-29T12:43:05.769Z,3.08
2023-01-29T12:45:37.296Z,2.70
2023-01-29T12:48:09.665Z,3.10
2023-01-29T12:50:40.955Z,2.80
2023-01-29T12:53:22.185Z,2.83
2023-01-29T12:55:55.612Z,3.10
2023-01-29T12:58:29.392Z,5.25
2023-01-29T13:01:03.406Z,2.75
2023-01-29T13:03:40.280Z,3.40
2023-01-29T13:06:13.888Z,2.50
2023-01-29T13:08:46.271Z,6.70
2023-01-29T13:11:20.668Z,2.92
2023-01-29T13:13:54.547Z,6.20
2023-01-29T13:16:26.311Z,6.05
2023-01-29T13:18:58.191Z,2.35
2023-01-29T13:21:36.420Z,2.53
2023-01-29T13:24:11.195Z,5.22
2023-01-29T13:26:41.780Z,3.90
2023-01-29T13:29:23.735Z,5.10
2023-01-29T13:31:53.811Z,3.70
2023-01-29T13:34:26.096Z,3.35
2023-01-29T13:36:58.328Z,3.08
2023-01-29T13:39:30.931Z,2.40
2023-01-29T13:42:01.282Z,2.97
2023-01-29T13:44:35.875Z,3.13
2023-01-29T13:47:06.676Z,3.42
2023-01-29T13:49:38.887Z,4.18
2023-01-29T13:52:29.269Z,7.10
2023-01-29T13:55:00.503Z,5.57
2023-01-29T13:57:50.207Z,3.15
2023-01-29T14:04:04.827Z,2.55
2023-01-29T14:06:48.954Z,2.60
2023-01-29T14:10:02.562Z,2.70
2023-01-29T14:12:51.283Z,2.67
2023-01-29T14:15:28.053Z,2.17
2023-01-29T14:18:16.727Z,2.42
2023-01-29T14:21:00.951Z,3.00
2023-01-29T14:23:42.429Z,2.38
2023-01-29T14:26:43.984Z,3.30
2023-01-29T14:29:34.230Z,2.85
2023-01-29T14:32:20.666Z,3.20
2023-01-29T14:34:51.660Z,3.25
2023-01-29T14:37:23.629Z,2.25
2023-01-29T14:39:56.149Z,3.38
2023-01-29T14:42:27.178Z,3.65
2023-01-29T14:45:23.660Z,3.53
2023-01-29T14:48:36.969Z,5.65
2023-01-29T14:51:11.669Z,2.30
2023-01-29T14:53:59.751Z,3.30
2023-01-29T14:56:34.767Z,3.47
2023-01-29T14:59:15.755Z,5.25
2023-01-29T15:01:52.222Z,3.20
2023-01-29T15:04:26.560Z,2.60
2023-01-29T15:07:01.216Z,2.53
2023-01-29T15:09:37.315Z,2.67
2023-01-29T15:12:15.595Z,2.78
2023-01-29T15:14:51.596Z,2.40
2023-01-29T15:17:29.338Z,2.33
2023-01-29T15:19:58.386Z,6.45
2023-01-29T15:22:29.303Z,4.22
2023-01-29T15:25:07.451Z,5.72
2023-01-29T15:27:36.377Z,2.83
2023-01-29T15:30:09.264Z,2.40
2023-01-29T15:32:41.245Z,3.15
2023-01-29T15:35:12.386Z,3.17
2023-01-29T15:37:41.851Z,2.80
2023-01-29T15:40:17.945Z,3.15
2023-01-29T15:42:48.814Z,2.05
2023-01-29T15:45:25.958Z,2.78
2023-01-29T15:48:00.101Z,2.45
2023-01-29T15:50:29.989Z,2.10
2023-01-29T15:53:03.924Z,2.03
2023-01-29T15:55:34.282Z,2.53
2023-01-29T15:58:04.288Z,3.25
2023-01-29T16:00:34.319Z,2.67
2023-01-29T16:03:16.376Z,1.98
2023-01-29T16:05:45.590Z,2.63
2023-01-29T16:08:16.401Z,2.10
2023-01-29T16:10:47.425Z,2.70
2023-01-29T16:13:21.502Z,2.30
2023-01-29T16:15:57.730Z,3.00
2023-01-29T16:18:32.376Z,4.38
2023-01-29T16:21:05.591Z,1.83
2023-01-29T16:23:43.022Z,2.20
2023-01-29T16:26:19.337Z,3.03
2023-01-29T16:28:49.688Z,2.58
2023-01-29T16:31:27.420Z,2.97
2023-01-29T16:33:59.146Z,2.92
2023-01-29T16:36:29.362Z,2.47
2023-01-29T16:39:01.324Z,2.65
2023-01-29T16:41:36.128Z,2.85
2023-01-29T16:44:28.273Z,3.35
2023-01-29T16:46:57.582Z,2.42
2023-01-29T16:49:50.708Z,2.20
2023-01-29T16:52:21.897Z,2.75
2023-01-29T16:54:51.741Z,2.63
2023-01-29T16:59:55.285Z,2.28
2023-01-29T17:02:27.863Z,2.30
2023-01-29T17:05:01.312Z,3.30
2023-01-29T17:07:31.692Z,2.45
2023-01-29T17:10:03.351Z,3.58
2023-01-29T17:12:33.981Z,2.50
2023-01-29T17:15:05.993Z,2.50
2023-01-29T17:17:37.582Z,2.53
2023-01-29T17:20:15.468Z,2.00
2023-01-29T17:22:47.261Z,3.22
2023-01-29T17:25:18.822Z,4.50
2023-01-29T17:27:51.844Z,4.35
2023-01-29T17:30:22.704Z,4.05
2023-01-29T17:32:51.439Z,6.95
2023-01-29T17:35:23.481Z,3.90
2023-01-29T17:37:52.602Z,3.33
2023-01-29T17:40:32.125Z,3.50
2023-01-29T17:43:00.717Z,2.30
2023-01-29T17:45:29.338Z,3.00
2023-01-29T17:47:58.553Z,3.28
2023-01-29T17:50:30.880Z,3.60
2023-01-29T17:53:00.547Z,3.60
2023-01-29T17:55:29.089Z,2.85
2023-01-29T17:57:58.282Z,3.55
2023-01-29T18:00:27.329Z,3.13
2023-01-29T18:02:56.004Z,2.60
2023-01-29T18:05:24.598Z,2.70
2023-01-29T18:07:55.179Z,5.50
2023-01-29T18:10:24.051Z,3.92
2023-01-29T18:12:52.639Z,2.95
2023-01-29T18:15:21.210Z,3.83
2023-01-29T18:17:52.237Z,3.23
2023-01-29T18:20:23.783Z,3.20
2023-01-29T18:22:54.168Z,2.90
2023-01-29T18:25:24.905Z,2.00
2023-01-29T18:27:54.474Z,2.40
2023-01-29T18:30:23.700Z,2.40
2023-01-29T18:32:53.406Z,2.72
2023-01-29T18:35:22.501Z,2.08
2023-01-29T18:37:51.607Z,4.78
2023-01-29T18:40:21.985Z,3.33
2023-01-29T18:42:50.543Z,1.77
2023-01-29T18:45:19.759Z,2.15
2023-01-29T18:47:49.575Z,2.13
2023-01-29T18:50:19.129Z,2.55
2023-01-29T18:52:47.912Z,2.58
2023-01-29T18:55:17.216Z,2.25
2023-01-29T18:58:28.120Z,2.88
2023-01-29T19:00:36.207Z,3.40
2023-01-29T19:03:04.757Z,2.78
2023-01-29T19:05:35.424Z,2.17
2023-01-29T19:08:05.395Z,2.95
2023-01-29T19:10:34.829Z,2.83
2023-01-29T19:13:06.601Z,2.90
2023-01-29T19:15:35.377Z,2.72
2023-01-29T19:18:04.408Z,2.63
2023-01-29T19:20:32.997Z,3.50
2023-01-29T19:23:01.785Z,3.72
2023-01-29T19:25:30.336Z,2.90
2023-01-29T19:27:59.545Z,3.28
2023-01-29T19:30:30.140Z,3.08
2023-01-29T19:32:58.786Z,3.38
2023-01-29T19:35:27.561Z,3.00
2023-01-29T19:37:56.438Z,3.60
2023-01-29T19:40:25.475Z,3.70
2023-01-29T19:42:56.111Z,3.83
2023-01-29T19:45:37.111Z,2.72
2023-01-29T19:48:20.379Z,3.28
2023-01-29T19:50:53.719Z,3.15
2023-01-29T19:53:23.053Z,3.13
2023-01-29T19:55:59.522Z,3.28
2023-01-29T19:58:29.259Z,3.03
2023-01-29T20:00:58.505Z,3.03
2023-01-29T20:03:29.426Z,2.97
2023-01-29T20:06:02.970Z,2.75
2023-01-29T20:08:32.357Z,2.58
2023-01-29T20:11:01.128Z,2.90
2023-01-29T20:13:33.248Z,2.78
2023-01-29T20:16:04.043Z,3.00
2023-01-29T20:18:34.595Z,2.58
2023-01-29T20:21:09.189Z,2.60
2023-01-29T20:23:39.030Z,2.70
2023-01-29T20:26:09.771Z,2.97
2023-01-29T20:28:39.880Z,2.83
2023-01-29T20:31:09.334Z,2.92
2023-01-29T20:33:40.475Z,3.08
2023-01-29T20:36:11.345Z,3.05
2023-01-29T20:38:40.054Z,2.65
2023-01-29T20:41:10.476Z,2.95
2023-01-29T20:43:39.222Z,2.45
2023-01-29T20:46:09.577Z,2.90
2023-01-29T20:48:42.235Z,2.90
2023-01-29T20:51:13.873Z,2.60
2023-01-29T20:53:43.269Z,2.50
2023-01-29T20:56:15.000Z,2.42
2023-01-29T20:58:43.854Z,2.67
2023-01-29T21:01:14.350Z,2.70
2023-01-29T21:03:44.700Z,2.90
2023-01-29T21:06:13.641Z,2.22
2023-01-29T21:08:42.224Z,2.07
2023-01-29T21:11:11.347Z,2.15
2023-01-29T21:13:39.984Z,2.40
2023-01-29T21:16:10.908Z,2.58
2023-01-29T21:18:39.841Z,2.08
2023-01-29T21:21:09.712Z,1.97
2023-01-29T21:23:38.244Z,2.25
2023-01-29T21:26:08.017Z,2.40
2023-01-29T21:31:06.939Z,2.40
2023-01-29T21:33:35.649Z,1.90
2023-01-29T21:36:05.067Z,2.20
2023-01-29T21:38:35.178Z,2.50
2023-01-29T21:41:06.363Z,1.63
2023-01-29T21:43:34.075Z,2.17
2023-01-29T21:46:06.152Z,1.90
2023-01-29T21:48:34.823Z,1.98
2023-01-29T21:51:03.305Z,1.63
2023-01-29T21:53:32.152Z,2.03
2023-01-29T21:56:03.318Z,2.20
2023-01-29T21:58:32.385Z,2.15
2023-01-29T22:01:18.480Z,2.78
2023-01-29T22:03:50.104Z,2.20
2023-01-29T22:06:18.765Z,2.63
2023-01-29T22:08:49.148Z,2.50
2023-01-29T22:11:20.037Z,2.95
2023-01-29T22:13:49.285Z,2.70
2023-01-29T22:16:17.903Z,2.90
2023-01-29T22:18:46.607Z,2.78
2023-01-29T22:21:15.699Z,3.15
2023-01-29T22:23:49.513Z,2.72
2023-01-29T22:26:20.291Z,2.83
2023-01-29T22:28:50.814Z,4.03
2023-01-29T22:31:19.787Z,4.38
2023-01-29T22:33:48.560Z,3.07
2023-01-29T22:36:17.660Z,3.55
2023-01-29T22:38:48.772Z,2.95
2023-01-29T22:41:20.717Z,3.30
2023-01-29T22:43:52.763Z,3.63
2023-01-29T22:46:22.107Z,3.42
2023-01-29T22:48:56.154Z,2.92
2023-01-29T22:51:24.837Z,3.05
2023-01-29T22:53:58.913Z,3.22
2023-01-29T22:56:29.873Z,3.50
2023-01-29T22:59:02.619Z,2.63
2023-01-29T23:01:35.174Z,2.75
2023-01-29T23:04:07.174Z,2.47
2023-01-29T23:06:36.169Z,2.95
2023-01-29T23:09:04.861Z,2.92
2023-01-29T23:11:34.692Z,2.47
2023-01-29T23:19:01.884Z,2.35
2023-01-29T23:21:33.324Z,2.92
2023-01-29T23:24:02.375Z,2.85
2023-01-29T23:26:48.906Z,2.38
2023-01-29T23:29:19.387Z,2.42
2023-01-29T23:31:48.066Z,2.10
2023-01-29T23:34:17.578Z,1.73
2023-01-29T23:36:46.266Z,2.25
2023-01-29T23:39:14.800Z,1.67
2023-01-29T23:41:44.297Z,2.10
2023-01-29T23:44:13.147Z,1.63
2023-01-29T23:46:43.193Z,1.10
2023-01-29T23:49:11.986Z,1.15
2023-01-29T23:51:40.660Z,1.33
2023-01-29T23:54:09.543Z,1.23
2023-01-29T23:56:38.191Z,1.55
2023-01-29T23:59:06.828Z,1.20
